DLH4428 EDDF-LGSK
Flight info
| Callsign | DLH4428 |
|---|---|
| Flight time | N/A |
| Altitude | 35000 |
| Route | CINDY8S/18 CINDY Z74 LAMPU DCT NOMBO Y161 MAH DCT VAVOR DCT RADIZ DCT GORPA DCT DEVUL DCT REMSO DCT MEDUX UM867 KOGAT DCT ERANA UL737 TSL TSL1C |
| Aircraft | A321/M-SDE3FGHIRWY/LB1 |
Departure
| Time | 2026-04-14 15:35 |
|---|---|
| Airport | Frankfurt Main Airport (EDDF) |
Arrival
| Time | N/A |
|---|---|
| Airport | Skiathos Island National Airport (LGSK) |
| Time | Latitude | Longitude | Altitude | Speed | Heading |
|---|---|---|---|---|---|
| 2026-04-14 15:01 | 50.04918 | 8.57078 | 362 ft | 0 kts | 97° |
| 2026-04-14 15:24 | 50.04916 | 8.57086 | 362 ft | 2 kts | 125° |
| 2026-04-14 15:24 | 50.04895 | 8.57086 | 362 ft | 4 kts | 188° |
| 2026-04-14 15:24 | 50.04842 | 8.57068 | 362 ft | 12 kts | 203° |
| 2026-04-14 15:24 | 50.04744 | 8.56999 | 361 ft | 16 kts | 204° |
| 2026-04-14 15:25 | 50.04637 | 8.56930 | 360 ft | 15 kts | 197° |
| 2026-04-14 15:25 | 50.04539 | 8.56888 | 360 ft | 12 kts | 194° |
| 2026-04-14 15:25 | 50.04489 | 8.56869 | 359 ft | 4 kts | 193° |
| 2026-04-14 15:25 | 50.04481 | 8.56866 | 359 ft | 1 kts | 193° |
| 2026-04-14 15:26 | 50.04447 | 8.56854 | 359 ft | 10 kts | 192° |
| 2026-04-14 15:26 | 50.04349 | 8.56827 | 358 ft | 15 kts | 191° |
| 2026-04-14 15:26 | 50.04268 | 8.56796 | 358 ft | 9 kts | 211° |
| 2026-04-14 15:26 | 50.04225 | 8.56690 | 357 ft | 15 kts | 250° |
| 2026-04-14 15:27 | 50.04178 | 8.56492 | 355 ft | 23 kts | 250° |
| 2026-04-14 15:27 | 50.04121 | 8.56255 | 354 ft | 23 kts | 249° |
| 2026-04-14 15:27 | 50.04066 | 8.56023 | 353 ft | 22 kts | 250° |
| 2026-04-14 15:27 | 50.04012 | 8.55796 | 351 ft | 22 kts | 250° |
| 2026-04-14 15:28 | 50.03959 | 8.55574 | 350 ft | 20 kts | 250° |
| 2026-04-14 15:28 | 50.03915 | 8.55382 | 350 ft | 14 kts | 249° |
| 2026-04-14 15:28 | 50.03879 | 8.55241 | 349 ft | 13 kts | 250° |
| 2026-04-14 15:28 | 50.03867 | 8.55190 | 348 ft | 0 kts | 250° |
| 2026-04-14 15:30 | 50.03844 | 8.55094 | 348 ft | 16 kts | 251° |
| 2026-04-14 15:30 | 50.03793 | 8.54880 | 347 ft | 22 kts | 249° |
| 2026-04-14 15:30 | 50.03739 | 8.54654 | 345 ft | 22 kts | 250° |
| 2026-04-14 15:30 | 50.03685 | 8.54429 | 344 ft | 22 kts | 250° |
| 2026-04-14 15:31 | 50.03632 | 8.54209 | 343 ft | 21 kts | 250° |
| 2026-04-14 15:31 | 50.03579 | 8.53988 | 341 ft | 22 kts | 250° |
| 2026-04-14 15:31 | 50.03519 | 8.53768 | 340 ft | 22 kts | 253° |
| 2026-04-14 15:31 | 50.03472 | 8.53538 | 339 ft | 22 kts | 251° |
| 2026-04-14 15:32 | 50.03422 | 8.53328 | 339 ft | 19 kts | 249° |
| 2026-04-14 15:32 | 50.03382 | 8.53163 | 338 ft | 14 kts | 248° |
| 2026-04-14 15:32 | 50.03346 | 8.53013 | 338 ft | 15 kts | 251° |
| 2026-04-14 15:32 | 50.03309 | 8.52858 | 337 ft | 15 kts | 250° |
| 2026-04-14 15:33 | 50.03287 | 8.52767 | 337 ft | 3 kts | 250° |
| 2026-04-14 15:33 | 50.03287 | 8.52765 | 337 ft | 0 kts | 250° |
| 2026-04-14 15:33 | 50.03283 | 8.52749 | 337 ft | 6 kts | 249° |
| 2026-04-14 15:33 | 50.03247 | 8.52627 | 337 ft | 14 kts | 234° |
| 2026-04-14 15:34 | 50.03180 | 8.52593 | 336 ft | 3 kts | 178° |
| 2026-04-14 15:34 | 50.03177 | 8.52593 | 336 ft | 0 kts | 178° |
| 2026-04-14 15:34 | 50.03154 | 8.52595 | 336 ft | 11 kts | 178° |
| 2026-04-14 15:34 | 50.02840 | 8.52602 | 335 ft | 80 kts | 181° |
| 2026-04-14 15:35 | 50.02045 | 8.52606 | 334 ft | 143 kts | 180° |
| 2026-04-14 15:35 | 50.00895 | 8.52627 | 466 ft | 180 kts | 178° |
| 2026-04-14 15:35 | 49.99632 | 8.52674 | 1043 ft | 184 kts | 178° |
| 2026-04-14 15:35 | 49.98356 | 8.52687 | 1705 ft | 185 kts | 178° |
| 2026-04-14 15:36 | 49.97060 | 8.52801 | 2258 ft | 189 kts | 161° |
| 2026-04-14 15:36 | 49.96035 | 8.54028 | 2597 ft | 191 kts | 119° |
| 2026-04-14 15:36 | 49.95401 | 8.55896 | 2849 ft | 201 kts | 114° |
| 2026-04-14 15:36 | 49.94741 | 8.57887 | 3101 ft | 214 kts | 115° |
| 2026-04-14 15:37 | 49.94022 | 8.59983 | 3324 ft | 231 kts | 116° |
| 2026-04-14 15:37 | 49.93235 | 8.62222 | 3623 ft | 246 kts | 116° |
| 2026-04-14 15:37 | 49.92379 | 8.64626 | 3964 ft | 261 kts | 117° |
| 2026-04-14 15:37 | 49.91486 | 8.67110 | 4566 ft | 265 kts | 117° |
| 2026-04-14 15:38 | 49.90592 | 8.69584 | 5245 ft | 266 kts | 117° |
| 2026-04-14 15:38 | 49.89677 | 8.72113 | 5925 ft | 268 kts | 117° |
| 2026-04-14 15:38 | 49.88762 | 8.74611 | 6593 ft | 271 kts | 117° |
| 2026-04-14 15:38 | 49.87826 | 8.77170 | 7263 ft | 273 kts | 117° |
| 2026-04-14 15:39 | 49.86900 | 8.79719 | 7898 ft | 277 kts | 118° |
| 2026-04-14 15:39 | 49.85952 | 8.82332 | 8545 ft | 281 kts | 118° |
| 2026-04-14 15:39 | 49.84996 | 8.84969 | 9177 ft | 284 kts | 119° |
| 2026-04-14 15:39 | 49.84024 | 8.87654 | 9786 ft | 288 kts | 119° |
| 2026-04-14 15:40 | 49.83036 | 8.90372 | 10392 ft | 292 kts | 120° |
| 2026-04-14 15:40 | 49.82026 | 8.93147 | 10755 ft | 305 kts | 120° |
| 2026-04-14 15:40 | 49.80965 | 8.96056 | 11036 ft | 320 kts | 120° |
| 2026-04-14 15:40 | 49.79849 | 8.99114 | 11298 ft | 334 kts | 120° |
| 2026-04-14 15:41 | 49.78675 | 9.02329 | 11567 ft | 349 kts | 120° |
| 2026-04-14 15:41 | 49.77467 | 9.05652 | 11888 ft | 361 kts | 118° |
| 2026-04-14 15:41 | 49.76393 | 9.09165 | 12433 ft | 365 kts | 112° |
| 2026-04-14 15:41 | 49.75567 | 9.12886 | 13025 ft | 368 kts | 106° |
| 2026-04-14 15:42 | 49.74829 | 9.16639 | 13574 ft | 371 kts | 111° |
| 2026-04-14 15:42 | 49.73667 | 9.20176 | 14107 ft | 374 kts | 123° |
| 2026-04-14 15:42 | 49.72088 | 9.23370 | 14662 ft | 375 kts | 130° |
| 2026-04-14 15:42 | 49.70369 | 9.26413 | 15228 ft | 378 kts | 131° |
| 2026-04-14 15:43 | 49.68619 | 9.29456 | 15744 ft | 381 kts | 131° |
| 2026-04-14 15:43 | 49.66866 | 9.32517 | 16252 ft | 384 kts | 131° |
| 2026-04-14 15:43 | 49.65107 | 9.35606 | 16755 ft | 386 kts | 131° |
| 2026-04-14 15:43 | 49.63314 | 9.38673 | 17241 ft | 389 kts | 135° |
| 2026-04-14 15:44 | 49.61315 | 9.41461 | 17738 ft | 391 kts | 141° |
| 2026-04-14 15:44 | 49.59104 | 9.43881 | 18199 ft | 393 kts | 148° |
| 2026-04-14 15:44 | 49.56759 | 9.46072 | 18659 ft | 396 kts | 149° |
| 2026-04-14 15:44 | 49.54362 | 9.48248 | 19095 ft | 400 kts | 150° |
| 2026-04-14 15:45 | 49.51972 | 9.50412 | 19543 ft | 402 kts | 150° |
| 2026-04-14 15:45 | 49.49558 | 9.52604 | 19995 ft | 405 kts | 150° |
| 2026-04-14 15:45 | 49.47149 | 9.54799 | 20425 ft | 407 kts | 150° |
| 2026-04-14 15:45 | 49.44716 | 9.57017 | 20829 ft | 410 kts | 150° |
| 2026-04-14 15:46 | 49.42267 | 9.59248 | 21243 ft | 412 kts | 150° |
| 2026-04-14 15:46 | 49.39795 | 9.61496 | 21665 ft | 414 kts | 150° |
| 2026-04-14 15:46 | 49.37332 | 9.63736 | 22059 ft | 416 kts | 149° |
| 2026-04-14 15:46 | 49.34895 | 9.66202 | 22454 ft | 419 kts | 146° |
| 2026-04-14 15:47 | 49.32631 | 9.68959 | 22832 ft | 422 kts | 140° |
| 2026-04-14 15:47 | 49.30490 | 9.72045 | 23204 ft | 425 kts | 137° |
| 2026-04-14 15:47 | 49.28392 | 9.75253 | 23580 ft | 427 kts | 136° |
| 2026-04-14 15:47 | 49.26302 | 9.78471 | 23941 ft | 429 kts | 136° |
| 2026-04-14 15:48 | 49.24181 | 9.81726 | 24285 ft | 431 kts | 136° |
| 2026-04-14 15:48 | 49.22079 | 9.84941 | 24620 ft | 433 kts | 136° |
| 2026-04-14 15:48 | 49.19957 | 9.88173 | 24961 ft | 434 kts | 136° |
| 2026-04-14 15:48 | 49.17806 | 9.91445 | 25289 ft | 436 kts | 136° |
| 2026-04-14 15:49 | 49.15668 | 9.94690 | 25600 ft | 438 kts | 136° |
| 2026-04-14 15:49 | 49.13481 | 9.98006 | 25890 ft | 441 kts | 136° |
| 2026-04-14 15:49 | 49.11303 | 10.01304 | 26175 ft | 443 kts | 136° |
| 2026-04-14 15:49 | 49.09135 | 10.04579 | 26442 ft | 445 kts | 136° |
| 2026-04-14 15:50 | 49.06926 | 10.07912 | 26724 ft | 447 kts | 136° |
| 2026-04-14 15:50 | 49.04688 | 10.11208 | 27020 ft | 449 kts | 138° |
| 2026-04-14 15:50 | 49.02401 | 10.14441 | 27313 ft | 450 kts | 139° |
| 2026-04-14 15:50 | 49.00090 | 10.17677 | 27592 ft | 451 kts | 139° |
| 2026-04-14 15:51 | 48.97783 | 10.20913 | 27861 ft | 453 kts | 139° |
| 2026-04-14 15:51 | 48.95488 | 10.24141 | 28131 ft | 454 kts | 138° |
| 2026-04-14 15:51 | 48.93150 | 10.27436 | 28389 ft | 456 kts | 138° |
| 2026-04-14 15:51 | 48.90845 | 10.30692 | 28682 ft | 456 kts | 138° |
| 2026-04-14 15:52 | 48.88536 | 10.33944 | 29053 ft | 455 kts | 138° |
| 2026-04-14 15:52 | 48.86279 | 10.37104 | 29417 ft | 453 kts | 138° |
| 2026-04-14 15:52 | 48.83959 | 10.40359 | 29753 ft | 452 kts | 138° |
| 2026-04-14 15:52 | 48.81737 | 10.43688 | 30078 ft | 452 kts | 135° |
| 2026-04-14 15:53 | 48.79567 | 10.47158 | 30413 ft | 451 kts | 134° |
| 2026-04-14 15:53 | 48.77402 | 10.50638 | 30741 ft | 450 kts | 134° |
| 2026-04-14 15:53 | 48.75271 | 10.54059 | 31044 ft | 449 kts | 134° |
| 2026-04-14 15:53 | 48.73115 | 10.57506 | 31315 ft | 449 kts | 134° |
| 2026-04-14 15:54 | 48.68833 | 10.64332 | 31801 ft | 449 kts | 134° |
| 2026-04-14 15:54 | 48.66692 | 10.67743 | 32054 ft | 448 kts | 135° |
| 2026-04-14 15:54 | 48.64590 | 10.71097 | 32298 ft | 448 kts | 135° |
| 2026-04-14 15:55 | 48.62461 | 10.74485 | 32551 ft | 447 kts | 135° |
| 2026-04-14 15:55 | 48.60319 | 10.77882 | 32789 ft | 446 kts | 135° |
| 2026-04-14 15:55 | 48.58179 | 10.81275 | 33021 ft | 446 kts | 135° |
| 2026-04-14 15:55 | 48.56047 | 10.84679 | 33243 ft | 446 kts | 134° |
| 2026-04-14 15:56 | 48.53948 | 10.88044 | 33460 ft | 446 kts | 134° |
| 2026-04-14 15:56 | 48.51831 | 10.91433 | 33635 ft | 446 kts | 134° |
| 2026-04-14 15:56 | 48.49681 | 10.94865 | 33804 ft | 447 kts | 134° |
| 2026-04-14 15:56 | 48.47553 | 10.98226 | 33977 ft | 448 kts | 135° |
| 2026-04-14 15:57 | 48.45374 | 11.01620 | 34151 ft | 448 kts | 135° |
| 2026-04-14 15:57 | 48.43218 | 11.04969 | 34308 ft | 449 kts | 135° |
| 2026-04-14 15:57 | 48.41039 | 11.08355 | 34476 ft | 450 kts | 135° |
| 2026-04-14 15:57 | 48.38861 | 11.11742 | 34634 ft | 450 kts | 135° |
| 2026-04-14 15:58 | 48.36695 | 11.15110 | 34775 ft | 450 kts | 135° |
| 2026-04-14 15:58 | 48.34522 | 11.18484 | 34889 ft | 451 kts | 135° |
| 2026-04-14 15:58 | 48.32341 | 11.21865 | 35006 ft | 452 kts | 135° |
| 2026-04-14 15:58 | 48.30164 | 11.25270 | 35120 ft | 453 kts | 133° |
| 2026-04-14 15:59 | 48.28070 | 11.28845 | 35173 ft | 455 kts | 130° |
| 2026-04-14 15:59 | 48.24319 | 11.36464 | 35201 ft | 455 kts | 123° |
| 2026-04-14 16:00 | 48.21095 | 11.44595 | 35189 ft | 455 kts | 120° |
| 2026-04-14 16:00 | 48.17943 | 11.52787 | 35198 ft | 455 kts | 121° |
| 2026-04-14 16:01 | 48.14783 | 11.60948 | 35180 ft | 454 kts | 121° |
| 2026-04-14 16:01 | 48.11618 | 11.69093 | 35196 ft | 453 kts | 122° |
| 2026-04-14 16:02 | 48.08441 | 11.77262 | 35193 ft | 452 kts | 122° |
| 2026-04-14 16:02 | 48.05299 | 11.85299 | 35186 ft | 451 kts | 122° |
| 2026-04-14 16:03 | 48.02131 | 11.93375 | 35188 ft | 449 kts | 122° |
| 2026-04-14 16:03 | 47.98966 | 12.01402 | 35187 ft | 450 kts | 122° |
| 2026-04-14 16:04 | 47.95625 | 12.09227 | 35177 ft | 449 kts | 128° |
| 2026-04-14 16:04 | 47.91745 | 12.16437 | 35170 ft | 447 kts | 134° |
| 2026-04-14 16:05 | 47.87352 | 12.22924 | 35150 ft | 446 kts | 140° |
| 2026-04-14 16:05 | 47.82592 | 12.28880 | 35156 ft | 445 kts | 141° |
| 2026-04-14 16:06 | 47.77894 | 12.34755 | 35148 ft | 445 kts | 141° |
| 2026-04-14 16:06 | 47.73161 | 12.40679 | 35142 ft | 444 kts | 141° |
| 2026-04-14 16:07 | 47.68427 | 12.46587 | 35143 ft | 444 kts | 142° |
| 2026-04-14 16:07 | 47.63741 | 12.52485 | 35144 ft | 445 kts | 140° |
| 2026-04-14 16:08 | 47.59345 | 12.58972 | 35154 ft | 446 kts | 134° |
| 2026-04-14 16:08 | 47.55159 | 12.65643 | 35150 ft | 446 kts | 135° |
| 2026-04-14 16:09 | 47.50943 | 12.72384 | 35158 ft | 445 kts | 135° |
| 2026-04-14 16:09 | 47.46762 | 12.79048 | 35158 ft | 445 kts | 135° |
| 2026-04-14 16:10 | 47.42551 | 12.85731 | 35151 ft | 444 kts | 135° |
| 2026-04-14 16:10 | 47.38369 | 12.92346 | 35153 ft | 443 kts | 135° |
| 2026-04-14 16:11 | 47.34150 | 12.98999 | 35151 ft | 443 kts | 135° |
| 2026-04-14 16:11 | 47.29958 | 13.05591 | 35144 ft | 442 kts | 135° |
| 2026-04-14 16:12 | 47.25758 | 13.12186 | 35132 ft | 443 kts | 136° |
| 2026-04-14 16:12 | 47.21553 | 13.18763 | 35121 ft | 442 kts | 135° |
| 2026-04-14 16:13 | 47.17363 | 13.25307 | 35100 ft | 441 kts | 136° |
| 2026-04-14 16:13 | 47.13154 | 13.31864 | 35098 ft | 442 kts | 136° |
| 2026-04-14 16:14 | 47.08948 | 13.38400 | 35094 ft | 442 kts | 136° |
| 2026-04-14 16:14 | 47.04742 | 13.44918 | 35098 ft | 442 kts | 136° |
| 2026-04-14 16:15 | 47.00521 | 13.51446 | 35090 ft | 442 kts | 136° |
| 2026-04-14 16:15 | 46.96285 | 13.57977 | 35081 ft | 442 kts | 136° |
| 2026-04-14 16:16 | 46.92065 | 13.64469 | 35088 ft | 442 kts | 136° |
| 2026-04-14 16:16 | 46.87923 | 13.70836 | 35099 ft | 443 kts | 136° |
| 2026-04-14 16:17 | 46.83727 | 13.77241 | 35110 ft | 443 kts | 136° |
| 2026-04-14 16:17 | 46.79521 | 13.83658 | 35122 ft | 444 kts | 136° |
| 2026-04-14 16:18 | 46.75274 | 13.90126 | 35121 ft | 444 kts | 136° |
| 2026-04-14 16:18 | 46.71001 | 13.96619 | 35134 ft | 445 kts | 137° |
| 2026-04-14 16:19 | 46.66728 | 14.03097 | 35130 ft | 445 kts | 136° |
| 2026-04-14 16:19 | 46.62445 | 14.09575 | 35123 ft | 445 kts | 136° |
| 2026-04-14 16:20 | 46.58157 | 14.16047 | 35122 ft | 445 kts | 136° |
| 2026-04-14 16:20 | 46.53871 | 14.22502 | 35123 ft | 444 kts | 136° |
| 2026-04-14 16:21 | 46.49593 | 14.28926 | 35119 ft | 445 kts | 136° |
| 2026-04-14 16:21 | 46.45286 | 14.35378 | 35120 ft | 445 kts | 136° |
| 2026-04-14 16:22 | 46.40990 | 14.41801 | 35113 ft | 445 kts | 136° |
| 2026-04-14 16:22 | 46.36697 | 14.48203 | 35116 ft | 445 kts | 136° |
| 2026-04-14 16:23 | 46.32409 | 14.54581 | 35116 ft | 444 kts | 136° |
| 2026-04-14 16:23 | 46.28109 | 14.60960 | 35117 ft | 445 kts | 136° |
| 2026-04-14 16:24 | 46.23802 | 14.67340 | 35115 ft | 445 kts | 136° |
| 2026-04-14 16:24 | 46.19463 | 14.73782 | 35117 ft | 445 kts | 137° |
| 2026-04-14 16:25 | 46.15163 | 14.80132 | 35110 ft | 445 kts | 137° |
| 2026-04-14 16:25 | 46.10830 | 14.86501 | 35105 ft | 445 kts | 136° |
| 2026-04-14 16:26 | 46.06523 | 14.92819 | 35102 ft | 444 kts | 136° |
| 2026-04-14 16:26 | 46.02198 | 14.99151 | 35109 ft | 443 kts | 137° |
| 2026-04-14 16:27 | 45.97884 | 15.05446 | 35097 ft | 443 kts | 136° |
| 2026-04-14 16:27 | 45.93558 | 15.11744 | 35106 ft | 444 kts | 136° |
| 2026-04-14 16:28 | 45.89225 | 15.18041 | 35106 ft | 444 kts | 137° |
| 2026-04-14 16:28 | 45.84881 | 15.24308 | 35110 ft | 444 kts | 137° |
| 2026-04-14 16:29 | 45.80547 | 15.30569 | 35101 ft | 444 kts | 137° |
| 2026-04-14 16:29 | 45.76299 | 15.36965 | 35108 ft | 446 kts | 133° |
| 2026-04-14 16:30 | 45.72305 | 15.43789 | 35112 ft | 446 kts | 131° |
| 2026-04-14 16:30 | 45.68342 | 15.50592 | 35112 ft | 447 kts | 131° |
| 2026-04-14 16:31 | 45.64383 | 15.57379 | 35104 ft | 447 kts | 131° |
| 2026-04-14 16:31 | 45.60412 | 15.64172 | 35099 ft | 447 kts | 131° |
| 2026-04-14 16:32 | 45.56434 | 15.70980 | 35108 ft | 448 kts | 132° |
| 2026-04-14 16:32 | 45.52454 | 15.77776 | 35103 ft | 448 kts | 133° |
| 2026-04-14 16:33 | 45.48444 | 15.84594 | 35111 ft | 448 kts | 133° |
| 2026-04-14 16:33 | 45.44448 | 15.91365 | 35107 ft | 448 kts | 133° |
| 2026-04-14 16:34 | 45.40436 | 15.98145 | 35111 ft | 449 kts | 133° |
| 2026-04-14 16:34 | 45.36445 | 16.04872 | 35111 ft | 449 kts | 133° |
| 2026-04-14 16:35 | 45.32413 | 16.11653 | 35106 ft | 450 kts | 133° |
| 2026-04-14 16:35 | 45.28372 | 16.18435 | 35106 ft | 450 kts | 132° |
| 2026-04-14 16:36 | 45.24338 | 16.25192 | 35102 ft | 450 kts | 132° |
| 2026-04-14 16:36 | 45.20294 | 16.31951 | 35107 ft | 451 kts | 132° |
| 2026-04-14 16:37 | 45.16263 | 16.38677 | 35105 ft | 451 kts | 132° |
| 2026-04-14 16:37 | 45.12181 | 16.45434 | 35111 ft | 451 kts | 133° |
| 2026-04-14 16:38 | 45.08007 | 16.52041 | 35115 ft | 451 kts | 134° |
| 2026-04-14 16:38 | 45.03882 | 16.58528 | 35111 ft | 431 kts | 134° |
| 2026-04-14 16:39 | 45.01257 | 16.62667 | 35118 ft | 424 kts | 134° |
| 2026-04-14 16:39 | 44.97348 | 16.68833 | 35118 ft | 423 kts | 134° |
| 2026-04-14 16:40 | 44.93483 | 16.74937 | 35114 ft | 423 kts | 134° |
| 2026-04-14 16:40 | 44.89565 | 16.81104 | 35104 ft | 423 kts | 134° |
| 2026-04-14 16:41 | 44.85796 | 16.86972 | 35102 ft | 423 kts | 135° |
| 2026-04-14 16:41 | 44.81859 | 16.93099 | 35108 ft | 423 kts | 134° |
| 2026-04-14 16:42 | 44.77914 | 16.99241 | 35099 ft | 424 kts | 134° |
| 2026-04-14 16:42 | 44.73963 | 17.05390 | 35098 ft | 424 kts | 134° |
| 2026-04-14 16:43 | 44.70039 | 17.11483 | 35099 ft | 420 kts | 134° |
| 2026-04-14 16:43 | 44.66128 | 17.17545 | 35094 ft | 419 kts | 134° |
| 2026-04-14 16:44 | 44.62218 | 17.23592 | 35084 ft | 419 kts | 134° |
| 2026-04-14 16:44 | 44.58319 | 17.29606 | 35093 ft | 419 kts | 134° |
| 2026-04-14 16:45 | 44.52415 | 17.38691 | 35087 ft | 419 kts | 134° |
| 2026-04-14 16:45 | 44.48504 | 17.44694 | 35093 ft | 419 kts | 134° |
| 2026-04-14 16:46 | 44.44597 | 17.50676 | 35090 ft | 419 kts | 134° |
| 2026-04-14 16:46 | 44.40671 | 17.56676 | 35089 ft | 420 kts | 134° |
| 2026-04-14 16:47 | 44.36726 | 17.62693 | 35086 ft | 420 kts | 134° |
| 2026-04-14 16:47 | 44.32865 | 17.68579 | 35092 ft | 421 kts | 135° |
| 2026-04-14 16:48 | 44.28911 | 17.74610 | 35090 ft | 422 kts | 135° |
| 2026-04-14 16:48 | 44.24936 | 17.80646 | 35096 ft | 422 kts | 135° |
| 2026-04-14 16:49 | 44.20980 | 17.86631 | 35085 ft | 422 kts | 135° |
| 2026-04-14 16:49 | 44.17019 | 17.92608 | 35095 ft | 421 kts | 135° |
| 2026-04-14 16:50 | 44.13069 | 17.98555 | 35089 ft | 417 kts | 135° |
| 2026-04-14 16:50 | 44.09119 | 18.04485 | 35092 ft | 417 kts | 135° |
| 2026-04-14 16:51 | 44.05182 | 18.10390 | 35087 ft | 418 kts | 135° |